Time;durP1;ratioP1;P1;durP2;ratioP2;P2;SDS_P1;SDS_P2;PMS_P1;PMS_P2;Temp;Humidity;BMP_temperature;BMP_pressure;BME280_temperature;BME280_humidity;BME280_pressure;Samples;Min_cycle;Max_cycle;Signal;HPM_P1;HPM_P2
2023/06/18 00:02:16;;;;;;;12.23;5.82;;;;;;;;;;5093223;28;20028;-64
2023/06/18 00:04:41;;;;;;;6.47;5.28;;;;;;;;;;5089269;28;20035;-64
2023/06/18 00:07:07;;;;;;;10.03;6.20;;;;;;;;;;5093214;28;20058;-64
2023/06/18 00:09:32;;;;;;;7.32;5.20;;;;;;;;;;5092925;28;20628;-64
2023/06/18 00:11:57;;;;;;;10.15;5.40;;;;;;;;;;5093349;28;20105;-64
2023/06/18 00:14:23;;;;;;;7.47;5.30;;;;;;;;;;5093059;28;20099;-64
2023/06/18 00:16:49;;;;;;;8.43;5.60;;;;;;;;;;5093866;28;20500;-64
2023/06/18 00:19:14;;;;;;;8.93;5.47;;;;;;;;;;5086887;28;20039;-64
2023/06/18 00:21:40;;;;;;;8.32;5.53;;;;;;;;;;5093240;28;20028;-64
2023/06/18 00:24:05;;;;;;;7.53;5.63;;;;;;;;;;5092858;28;20020;-64
2023/06/18 00:26:30;;;;;;;7.20;5.22;;;;;;;;;;5093340;28;20032;-64
2023/06/18 00:28:55;;;;;;;6.20;5.23;;;;;;;;;;5092194;28;20016;-65
2023/06/18 00:31:21;;;;;;;6.85;4.95;;;;;;;;;;5093578;28;20361;-64
2023/06/18 00:33:46;;;;;;;9.43;5.78;;;;;;;;;;5093053;28;20028;-64
2023/06/18 00:36:12;;;;;;;7.20;5.38;;;;;;;;;;5092535;28;20125;-64
2023/06/18 00:38:43;;;;;;;6.65;5.00;;;;;;;;;;5090040;28;20032;-64
2023/06/18 00:41:11;;;;;;;7.38;5.60;;;;;;;;;;5093233;28;20040;-64
2023/06/18 00:43:37;;;;;;;7.10;5.15;;;;;;;;;;5093038;28;20016;-64
2023/06/18 00:46:02;;;;;;;11.30;6.03;;;;;;;;;;5079082;28;20084;-64
2023/06/18 00:48:31;;;;;;;6.70;5.07;;;;;;;;;;5092372;28;20024;-64
2023/06/18 00:50:59;;;;;;;6.75;4.97;;;;;;;;;;5092617;28;20023;-64
2023/06/18 00:53:25;;;;;;;17.85;5.70;;;;;;;;;;5074280;28;20052;-64
2023/06/18 00:55:51;;;;;;;7.03;4.65;;;;;;;;;;5092069;28;20016;-64
2023/06/18 00:58:17;;;;;;;8.43;5.70;;;;;;;;;;5092318;28;20032;-64
2023/06/18 01:00:43;;;;;;;6.03;4.45;;;;;;;;;;5092121;28;20023;-64
2023/06/18 01:03:16;;;;;;;5.88;5.07;;;;;;;;;;5092878;28;20028;-64
2023/06/18 01:05:46;;;;;;;8.25;5.32;;;;;;;;;;5091510;28;20024;-64
2023/06/18 01:08:12;;;;;;;8.75;5.65;;;;;;;;;;5092085;28;20027;-64
2023/06/18 01:10:41;;;;;;;6.85;5.35;;;;;;;;;;5092796;28;20051;-65
2023/06/18 01:13:14;;;;;;;8.00;5.30;;;;;;;;;;5080391;28;20455;-64
2023/06/18 01:15:39;;;;;;;5.70;4.90;;;;;;;;;;5090726;28;20036;-64
2023/06/18 01:18:07;;;;;;;6.93;5.22;;;;;;;;;;5084583;28;20064;-64
2023/06/18 01:20:40;;;;;;;9.35;5.35;;;;;;;;;;5091629;28;20058;-64
2023/06/18 01:23:09;;;;;;;10.07;5.23;;;;;;;;;;5091130;28;20386;-65
2023/06/18 01:25:37;;;;;;;8.32;4.80;;;;;;;;;;5092130;28;20382;-64
2023/06/18 01:28:07;;;;;;;7.18;5.00;;;;;;;;;;5091093;28;20031;-64
2023/06/18 01:30:32;;;;;;;7.90;5.20;;;;;;;;;;5091363;28;20443;-64
2023/06/18 01:33:00;;;;;;;8.35;5.65;;;;;;;;;;5091980;28;20067;-65
2023/06/18 01:35:26;;;;;;;9.05;6.30;;;;;;;;;;5091306;28;20027;-65
2023/06/18 01:38:11;;;;;;;6.97;5.57;;;;;;;;;;5091376;28;20044;-64
2023/06/18 01:40:39;;;;;;;10.10;5.38;;;;;;;;;;5089675;28;20302;-64
2023/06/18 01:43:11;;;;;;;6.65;4.55;;;;;;;;;;5087360;28;20431;-64
2023/06/18 01:45:41;;;;;;;7.18;4.43;;;;;;;;;;5091814;28;20094;-64
2023/06/18 01:48:07;;;;;;;8.18;5.75;;;;;;;;;;5091125;28;20107;-64
2023/06/18 01:50:34;;;;;;;8.10;4.55;;;;;;;;;;5092327;28;20174;-64
2023/06/18 01:52:59;;;;;;;6.05;4.15;;;;;;;;;;5082077;28;20034;-64
2023/06/18 01:55:25;;;;;;;8.18;5.63;;;;;;;;;;5088166;28;20020;-64
2023/06/18 01:57:53;;;;;;;6.88;4.63;;;;;;;;;;5090979;28;20497;-64
2023/06/18 02:00:19;;;;;;;6.88;4.72;;;;;;;;;;5091975;28;20043;-64
2023/06/18 02:02:45;;;;;;;6.65;4.30;;;;;;;;;;5091193;28;20455;-64
2023/06/18 02:05:10;;;;;;;7.70;4.72;;;;;;;;;;5091326;28;20062;-64
2023/06/18 02:07:35;;;;;;;6.95;4.90;;;;;;;;;;5092053;28;20051;-64
2023/06/18 02:10:01;;;;;;;7.88;5.10;;;;;;;;;;5091278;28;20027;-64
2023/06/18 02:12:26;;;;;;;6.55;4.43;;;;;;;;;;5091094;28;20073;-64
2023/06/18 02:14:51;;;;;;;15.93;5.15;;;;;;;;;;5088607;28;20023;-64
2023/06/18 02:17:16;;;;;;;8.07;4.93;;;;;;;;;;5090800;28;20039;-64
2023/06/18 02:19:43;;;;;;;7.83;4.77;;;;;;;;;;5091654;28;20671;-64
2023/06/18 02:22:08;;;;;;;8.80;5.38;;;;;;;;;;5091150;28;20281;-64
2023/06/18 02:24:34;;;;;;;7.32;5.63;;;;;;;;;;5090761;28;20031;-64
2023/06/18 02:26:59;;;;;;;9.38;5.28;;;;;;;;;;5090498;28;20024;-64
2023/06/18 02:29:24;;;;;;;6.83;4.87;;;;;;;;;;5088520;28;20027;-64
2023/06/18 02:31:50;;;;;;;6.38;4.72;;;;;;;;;;5072570;28;20324;-64
2023/06/18 02:34:15;;;;;;;7.87;5.00;;;;;;;;;;5086831;28;20020;-64
2023/06/18 02:36:40;;;;;;;8.13;5.77;;;;;;;;;;5090912;28;20780;-64
2023/06/18 02:39:05;;;;;;;10.55;4.60;;;;;;;;;;5091010;28;20693;-64
2023/06/18 02:41:31;;;;;;;10.18;5.25;;;;;;;;;;5084996;28;20021;-64
2023/06/18 02:43:56;;;;;;;8.43;5.30;;;;;;;;;;5083874;28;20035;-64
2023/06/18 02:46:22;;;;;;;7.43;5.28;;;;;;;;;;5090574;28;20333;-64
2023/06/18 02:48:47;;;;;;;7.43;5.22;;;;;;;;;;5090320;28;20040;-64
2023/06/18 02:51:12;;;;;;;7.25;4.88;;;;;;;;;;5090554;28;20035;-64
2023/06/18 02:53:38;;;;;;;8.38;5.57;;;;;;;;;;5090623;28;20074;-64
2023/06/18 02:56:03;;;;;;;6.65;5.55;;;;;;;;;;5089929;28;20467;-64
2023/06/18 02:58:28;;;;;;;7.30;5.03;;;;;;;;;;5090957;28;20020;-64
2023/06/18 03:00:59;;;;;;;10.30;5.45;;;;;;;;;;5091160;28;20118;-64
2023/06/18 03:03:24;;;;;;;7.95;5.45;;;;;;;;;;5091347;28;20032;-64
2023/06/18 03:05:49;;;;;;;7.20;5.60;;;;;;;;;;5090347;28;20050;-64
2023/06/18 03:08:15;;;;;;;7.57;5.50;;;;;;;;;;5090811;28;20141;-64
2023/06/18 03:10:43;;;;;;;5.95;5.35;;;;;;;;;;5090720;28;20017;-64
2023/06/18 03:13:08;;;;;;;10.35;6.40;;;;;;;;;;5090532;28;20024;-64
2023/06/18 03:15:34;;;;;;;6.33;5.17;;;;;;;;;;5089468;28;20039;-64
2023/06/18 03:17:59;;;;;;;14.87;6.63;;;;;;;;;;5090266;28;20301;-64
2023/06/18 03:20:24;;;;;;;7.57;5.63;;;;;;;;;;5089706;28;20388;-64
2023/06/18 03:22:52;;;;;;;8.48;5.57;;;;;;;;;;5092700;28;20031;-64
2023/06/18 03:25:19;;;;;;;7.32;5.15;;;;;;;;;;5094335;28;20028;-64
2023/06/18 03:27:44;;;;;;;6.57;5.45;;;;;;;;;;5094572;28;20506;-64
2023/06/18 03:30:11;;;;;;;8.13;6.17;;;;;;;;;;5093572;28;20119;-63
2023/06/18 03:32:36;;;;;;;9.90;5.45;;;;;;;;;;5092303;28;20724;-66
2023/06/18 03:35:04;;;;;;;6.57;5.40;;;;;;;;;;5089147;28;20050;-65
2023/06/18 03:37:29;;;;;;;7.00;5.18;;;;;;;;;;5094271;28;20893;-64
2023/06/18 03:39:54;;;;;;;8.95;5.70;;;;;;;;;;5076113;28;20106;-65
2023/06/18 03:42:19;;;;;;;7.70;5.43;;;;;;;;;;5084693;28;20035;-64
2023/06/18 03:44:44;;;;;;;7.67;5.50;;;;;;;;;;5092920;28;20732;-64
2023/06/18 03:47:10;;;;;;;8.90;6.10;;;;;;;;;;5091155;28;20829;-64
2023/06/18 03:49:35;;;;;;;7.80;5.53;;;;;;;;;;5093125;28;20640;-64
2023/06/18 03:52:00;;;;;;;9.95;6.13;;;;;;;;;;5091876;28;20078;-65
2023/06/18 03:54:26;;;;;;;8.70;6.15;;;;;;;;;;5091360;28;20036;-65
2023/06/18 03:56:51;;;;;;;9.27;5.60;;;;;;;;;;5092772;28;20024;-65
2023/06/18 03:59:17;;;;;;;14.35;5.63;;;;;;;;;;5080635;28;20039;-65
2023/06/18 04:01:42;;;;;;;9.60;5.80;;;;;;;;;;5091880;28;20020;-65
2023/06/18 04:04:08;;;;;;;8.85;5.70;;;;;;;;;;5092919;28;20047;-65
2023/06/18 04:06:33;;;;;;;10.38;6.47;;;;;;;;;;5091727;28;20028;-65
2023/06/18 04:08:59;;;;;;;6.65;5.20;;;;;;;;;;5092385;28;20016;-65
2023/06/18 04:11:24;;;;;;;7.10;4.97;;;;;;;;;;5091726;28;20477;-64
2023/06/18 04:13:49;;;;;;;7.57;5.22;;;;;;;;;;5092011;28;20103;-65
2023/06/18 04:16:15;;;;;;;6.73;5.17;;;;;;;;;;5091710;28;20383;-65
2023/06/18 04:18:40;;;;;;;5.57;4.65;;;;;;;;;;5092518;28;20301;-64
2023/06/18 04:21:05;;;;;;;8.20;5.30;;;;;;;;;;5092820;28;20024;-64
2023/06/18 04:23:30;;;;;;;7.95;5.90;;;;;;;;;;5092600;28;20020;-64
2023/06/18 04:25:56;;;;;;;8.70;5.35;;;;;;;;;;5091542;28;20038;-65
2023/06/18 04:28:22;;;;;;;11.35;5.30;;;;;;;;;;5092830;28;20020;-64
2023/06/18 04:30:47;;;;;;;6.55;4.72;;;;;;;;;;5092805;28;20031;-64
2023/06/18 04:33:13;;;;;;;6.35;4.95;;;;;;;;;;5092711;28;20028;-64
2023/06/18 04:35:38;;;;;;;8.82;5.55;;;;;;;;;;5091576;28;20482;-64
2023/06/18 04:38:03;;;;;;;8.43;5.47;;;;;;;;;;5085571;28;20051;-64
2023/06/18 04:40:29;;;;;;;7.33;5.50;;;;;;;;;;5089047;28;20437;-64
2023/06/18 04:42:54;;;;;;;11.17;5.67;;;;;;;;;;5093240;28;20297;-64
2023/06/18 04:45:19;;;;;;;6.70;4.60;;;;;;;;;;5092439;28;20277;-64
2023/06/18 04:47:44;;;;;;;8.02;5.25;;;;;;;;;;5092453;28;20044;-64
2023/06/18 04:50:10;;;;;;;6.50;5.03;;;;;;;;;;5092511;28;20059;-64
2023/06/18 04:52:35;;;;;;;8.05;5.70;;;;;;;;;;5092529;28;20653;-64
2023/06/18 04:55:00;;;;;;;7.45;5.90;;;;;;;;;;5093130;28;20101;-64
2023/06/18 04:57:27;;;;;;;6.18;4.63;;;;;;;;;;5085515;28;20024;-64
2023/06/18 04:59:52;;;;;;;7.13;5.55;;;;;;;;;;5086551;28;20158;-64
2023/06/18 05:02:18;;;;;;;8.60;5.47;;;;;;;;;;5092408;28;20449;-64
2023/06/18 05:04:43;;;;;;;10.23;5.78;;;;;;;;;;5092245;28;20702;-64
2023/06/18 05:07:08;;;;;;;9.63;5.90;;;;;;;;;;5092570;28;20021;-64
2023/06/18 05:09:33;;;;;;;10.70;5.63;;;;;;;;;;5092310;28;20817;-65
2023/06/18 05:11:59;;;;;;;7.93;5.77;;;;;;;;;;5092210;28;20266;-64
2023/06/18 05:14:24;;;;;;;10.35;5.60;;;;;;;;;;5092043;28;20361;-65
2023/06/18 05:16:49;;;;;;;7.05;5.00;;;;;;;;;;5092391;28;20042;-64
2023/06/18 05:19:14;;;;;;;7.63;5.23;;;;;;;;;;5091478;28;20043;-64
2023/06/18 05:21:40;;;;;;;7.03;4.82;;;;;;;;;;5091947;28;20274;-64
2023/06/18 05:24:07;;;;;;;16.70;5.07;;;;;;;;;;5091812;28;20028;-64
2023/06/18 05:26:32;;;;;;;13.30;4.72;;;;;;;;;;5091859;28;20352;-64
2023/06/18 05:28:57;;;;;;;7.85;5.30;;;;;;;;;;5092523;28;20108;-64
2023/06/18 05:31:23;;;;;;;6.32;4.75;;;;;;;;;;5089487;28;20084;-64
2023/06/18 05:33:48;;;;;;;7.20;5.10;;;;;;;;;;5091890;28;20031;-64
2023/06/18 05:36:14;;;;;;;6.75;4.88;;;;;;;;;;5090838;28;20274;-64
2023/06/18 05:38:39;;;;;;;4.90;3.97;;;;;;;;;;5090544;28;20417;-64
2023/06/18 05:41:05;;;;;;;7.78;5.28;;;;;;;;;;5089590;28;20313;-64
2023/06/18 05:43:30;;;;;;;7.10;4.70;;;;;;;;;;5091247;28;20023;-64
2023/06/18 05:45:55;;;;;;;7.43;4.73;;;;;;;;;;5091029;28;20051;-64
2023/06/18 05:48:21;;;;;;;7.53;4.72;;;;;;;;;;5091442;28;20266;-64
2023/06/18 05:50:46;;;;;;;7.18;4.68;;;;;;;;;;5091156;28;20157;-64
2023/06/18 05:53:11;;;;;;;6.20;4.43;;;;;;;;;;5091256;28;20479;-64
2023/06/18 05:55:36;;;;;;;6.78;4.32;;;;;;;;;;5090792;28;20016;-64
2023/06/18 05:58:02;;;;;;;6.43;4.25;;;;;;;;;;5091203;28;20035;-64
2023/06/18 06:00:27;;;;;;;7.30;4.80;;;;;;;;;;5091244;28;20059;-64
2023/06/18 06:02:53;;;;;;;4.70;3.75;;;;;;;;;;5090837;28;20429;-64
2023/06/18 06:05:18;;;;;;;7.05;3.90;;;;;;;;;;5090992;28;20024;-64
2023/06/18 06:07:44;;;;;;;7.20;4.75;;;;;;;;;;5082333;28;20024;-64
2023/06/18 06:10:09;;;;;;;5.27;3.93;;;;;;;;;;5064885;28;20077;-64
2023/06/18 06:12:35;;;;;;;8.05;4.00;;;;;;;;;;5091001;28;20278;-64
2023/06/18 06:15:00;;;;;;;17.20;4.43;;;;;;;;;;5091623;28;20430;-64
2023/06/18 06:17:25;;;;;;;9.50;4.53;;;;;;;;;;5091519;28;20046;-63
2023/06/18 06:19:51;;;;;;;9.85;4.88;;;;;;;;;;5091881;28;20024;-64
2023/06/18 06:22:16;;;;;;;8.60;4.85;;;;;;;;;;5091525;28;20115;-64
2023/06/18 06:24:41;;;;;;;20.15;3.92;;;;;;;;;;5091457;28;20020;-64
2023/06/18 06:27:07;;;;;;;6.70;3.93;;;;;;;;;;5091387;28;20020;-64
2023/06/18 06:29:32;;;;;;;6.03;4.43;;;;;;;;;;5082171;28;20714;-64
2023/06/18 06:31:57;;;;;;;13.67;4.73;;;;;;;;;;5084374;28;20420;-64
2023/06/18 06:34:22;;;;;;;6.97;4.63;;;;;;;;;;5090671;28;20278;-64
2023/06/18 06:36:48;;;;;;;5.00;4.00;;;;;;;;;;5091458;28;20290;-64
2023/06/18 06:39:13;;;;;;;8.07;4.90;;;;;;;;;;5091454;28;20805;-64
2023/06/18 06:41:39;;;;;;;6.22;3.72;;;;;;;;;;5084871;28;20021;-65
2023/06/18 06:44:04;;;;;;;8.65;5.30;;;;;;;;;;5089834;28;20471;-65
2023/06/18 06:46:30;;;;;;;7.95;4.63;;;;;;;;;;5084245;28;20025;-64
2023/06/18 06:48:55;;;;;;;9.32;4.65;;;;;;;;;;5090026;28;20466;-65
2023/06/18 06:51:20;;;;;;;8.47;4.27;;;;;;;;;;5090928;28;20087;-64
2023/06/18 06:53:45;;;;;;;10.60;4.20;;;;;;;;;;5090729;28;20316;-64
2023/06/18 06:56:11;;;;;;;10.43;4.63;;;;;;;;;;5091339;28;20282;-64
2023/06/18 06:58:36;;;;;;;6.68;4.00;;;;;;;;;;5093624;28;20032;-64
2023/06/18 07:01:01;;;;;;;8.50;3.67;;;;;;;;;;5094425;28;20111;-64
2023/06/18 07:03:26;;;;;;;8.47;3.90;;;;;;;;;;5089018;28;20628;-65
2023/06/18 07:05:52;;;;;;;8.73;4.60;;;;;;;;;;5094273;28;20359;-65
2023/06/18 07:08:17;;;;;;;12.40;4.47;;;;;;;;;;5094233;28;20270;-64
2023/06/18 07:10:42;;;;;;;8.32;4.72;;;;;;;;;;5093352;28;20289;-66
2023/06/18 07:13:07;;;;;;;7.47;4.90;;;;;;;;;;5094231;28;20024;-64
2023/06/18 07:15:33;;;;;;;11.60;5.00;;;;;;;;;;5082218;28;20169;-65
2023/06/18 07:17:58;;;;;;;7.30;4.20;;;;;;;;;;5093940;28;20298;-64
2023/06/18 07:20:23;;;;;;;6.63;4.13;;;;;;;;;;5094512;28;20292;-65
2023/06/18 07:22:48;;;;;;;7.25;4.22;;;;;;;;;;5093892;28;20345;-65
2023/06/18 07:25:14;;;;;;;16.13;4.57;;;;;;;;;;5089315;28;20016;-65
2023/06/18 07:27:39;;;;;;;6.55;4.15;;;;;;;;;;5092840;28;20055;-65
2023/06/18 07:30:05;;;;;;;10.90;4.33;;;;;;;;;;5094177;28;20099;-66
2023/06/18 07:32:30;;;;;;;6.75;4.82;;;;;;;;;;5093382;28;20292;-66
2023/06/18 07:34:55;;;;;;;9.23;4.03;;;;;;;;;;5093666;28;20027;-65
2023/06/18 07:37:20;;;;;;;6.57;4.73;;;;;;;;;;5092600;28;20779;-65
2023/06/18 07:39:46;;;;;;;8.87;4.70;;;;;;;;;;5093781;28;20530;-70
2023/06/18 07:42:11;;;;;;;7.75;4.85;;;;;;;;;;5093883;28;20628;-67
2023/06/18 07:44:37;;;;;;;6.90;4.35;;;;;;;;;;5090325;28;20024;-66
2023/06/18 07:47:02;;;;;;;7.47;4.60;;;;;;;;;;5093515;28;20437;-66
2023/06/18 07:49:27;;;;;;;9.25;4.97;;;;;;;;;;5093314;28;20047;-66
2023/06/18 07:51:54;;;;;;;10.60;5.67;;;;;;;;;;5093654;28;20020;-66
2023/06/18 07:54:19;;;;;;;10.57;5.55;;;;;;;;;;5093847;28;20269;-64
2023/06/18 07:56:44;;;;;;;8.63;4.77;;;;;;;;;;5092883;28;20012;-66
2023/06/18 07:59:10;;;;;;;6.43;4.60;;;;;;;;;;5092535;28;20323;-65
2023/06/18 08:01:35;;;;;;;11.27;4.17;;;;;;;;;;5089523;28;20020;-65
2023/06/18 08:04:00;;;;;;;6.80;5.00;;;;;;;;;;5092838;28;20365;-64
2023/06/18 08:06:25;;;;;;;6.53;4.60;;;;;;;;;;5090689;28;20024;-64
2023/06/18 08:08:51;;;;;;;6.10;4.22;;;;;;;;;;5046856;28;20309;-65
2023/06/18 08:11:17;;;;;;;5.70;4.53;;;;;;;;;;5048544;28;20051;-65
2023/06/18 08:13:43;;;;;;;6.93;4.47;;;;;;;;;;5037676;28;20027;-65
2023/06/18 08:16:08;;;;;;;7.53;4.63;;;;;;;;;;5043738;28;20024;-65
2023/06/18 08:18:34;;;;;;;7.68;5.05;;;;;;;;;;5060098;28;20031;-64
2023/06/18 08:20:59;;;;;;;8.73;4.85;;;;;;;;;;5049791;28;20021;-66
2023/06/18 08:23:25;;;;;;;6.25;4.47;;;;;;;;;;5048210;28;20127;-67
2023/06/18 08:25:50;;;;;;;8.50;4.88;;;;;;;;;;5047674;28;20072;-66
2023/06/18 08:28:16;;;;;;;7.33;5.13;;;;;;;;;;5061197;28;20080;-65
2023/06/18 08:30:41;;;;;;;8.73;4.90;;;;;;;;;;5092936;28;20281;-65
2023/06/18 08:33:06;;;;;;;6.60;4.95;;;;;;;;;;5091930;28;20767;-65
2023/06/18 08:35:31;;;;;;;6.27;4.97;;;;;;;;;;5093034;28;20034;-63
2023/06/18 08:37:57;;;;;;;9.13;4.40;;;;;;;;;;5092082;28;20863;-65
2023/06/18 08:40:24;;;;;;;7.40;4.78;;;;;;;;;;5093010;28;20746;-66
2023/06/18 08:42:50;;;;;;;6.35;4.57;;;;;;;;;;5089047;28;20035;-65
2023/06/18 08:45:15;;;;;;;5.78;4.00;;;;;;;;;;5092419;28;20032;-66
2023/06/18 08:47:41;;;;;;;6.05;5.00;;;;;;;;;;5092212;28;20471;-66
2023/06/18 08:50:08;;;;;;;5.82;4.80;;;;;;;;;;5092276;28;20024;-66
2023/06/18 08:52:34;;;;;;;9.38;5.40;;;;;;;;;;5092603;28;20031;-66
2023/06/18 08:55:02;;;;;;;7.65;4.75;;;;;;;;;;5060573;28;20036;-66
2023/06/18 08:57:27;;;;;;;6.28;4.80;;;;;;;;;;5092321;28;20519;-66
2023/06/18 08:59:54;;;;;;;11.87;5.23;;;;;;;;;;5092684;28;20023;-67
2023/06/18 09:02:21;;;;;;;6.32;4.95;;;;;;;;;;5091950;28;20274;-66
2023/06/18 09:04:46;;;;;;;10.05;5.28;;;;;;;;;;5093253;28;20038;-65
2023/06/18 09:07:11;;;;;;;9.00;4.60;;;;;;;;;;5092436;28;20458;-66
2023/06/18 09:09:37;;;;;;;10.33;5.27;;;;;;;;;;5092943;28;20270;-66
2023/06/18 09:12:02;;;;;;;7.43;5.10;;;;;;;;;;5092263;28;20262;-65
2023/06/18 09:14:27;;;;;;;12.38;5.07;;;;;;;;;;5092545;28;20028;-66
2023/06/18 09:16:54;;;;;;;7.35;4.75;;;;;;;;;;5091946;28;20099;-66
2023/06/18 09:19:20;;;;;;;6.80;5.25;;;;;;;;;;5091491;28;20020;-66
2023/06/18 09:21:45;;;;;;;7.07;4.70;;;;;;;;;;5092225;28;20031;-66
2023/06/18 09:24:18;;;;;;;6.40;4.75;;;;;;;;;;5092148;28;20095;-65
2023/06/18 09:26:43;;;;;;;6.13;5.25;;;;;;;;;;5092013;28;20073;-65
2023/06/18 09:29:09;;;;;;;8.13;5.60;;;;;;;;;;5091428;28;20510;-66
2023/06/18 09:31:35;;;;;;;7.25;5.60;;;;;;;;;;5091139;28;20289;-65
2023/06/18 09:34:13;;;;;;;7.88;5.55;;;;;;;;;;5085255;28;20077;-66
2023/06/18 09:36:40;;;;;;;9.45;5.03;;;;;;;;;;5072650;28;20020;-65
2023/06/18 09:39:13;;;;;;;8.65;5.78;;;;;;;;;;5091264;28;20024;-65
2023/06/18 09:41:39;;;;;;;6.23;5.13;;;;;;;;;;5086822;28;20028;-66
2023/06/18 09:44:06;;;;;;;7.85;5.53;;;;;;;;;;5084764;28;20020;-65
2023/06/18 09:46:32;;;;;;;8.07;5.72;;;;;;;;;;5091826;28;20020;-65
2023/06/18 09:48:57;;;;;;;8.93;5.53;;;;;;;;;;5091613;28;20042;-65
2023/06/18 09:51:24;;;;;;;7.15;5.28;;;;;;;;;;5091939;28;20645;-66
2023/06/18 09:53:57;;;;;;;7.82;5.22;;;;;;;;;;5091689;28;20024;-65
2023/06/18 09:56:22;;;;;;;6.65;5.38;;;;;;;;;;5091906;28;20020;-66
2023/06/18 09:58:50;;;;;;;7.82;5.28;;;;;;;;;;5091546;28;20503;-65
2023/06/18 10:01:16;;;;;;;8.68;4.88;;;;;;;;;;5091427;28;20028;-65
2023/06/18 10:03:42;;;;;;;8.00;4.93;;;;;;;;;;5091846;28;20024;-65
2023/06/18 10:06:10;;;;;;;7.68;4.95;;;;;;;;;;5091912;28;20044;-65
2023/06/18 10:08:37;;;;;;;8.85;5.28;;;;;;;;;;5091485;28;20107;-65
2023/06/18 10:11:03;;;;;;;6.50;4.90;;;;;;;;;;5091935;28;20444;-66
2023/06/18 10:13:29;;;;;;;6.88;4.75;;;;;;;;;;5091046;28;20032;-65
2023/06/18 10:15:54;;;;;;;7.03;5.60;;;;;;;;;;5092171;28;20027;-65
2023/06/18 10:18:23;;;;;;;9.82;6.20;;;;;;;;;;5091491;28;20144;-65
2023/06/18 10:20:50;;;;;;;6.40;4.95;;;;;;;;;;5091024;28;20031;-65
2023/06/18 10:23:17;;;;;;;5.75;5.13;;;;;;;;;;5087692;28;20073;-66
2023/06/18 10:25:43;;;;;;;8.07;5.18;;;;;;;;;;5079969;28;20028;-65
2023/06/18 10:28:08;;;;;;;7.22;5.47;;;;;;;;;;5089512;28;20390;-65
2023/06/18 10:30:35;;;;;;;6.82;5.47;;;;;;;;;;5091572;28;20476;-65
2023/06/18 10:33:00;;;;;;;5.55;4.97;;;;;;;;;;5090063;28;20034;-65
2023/06/18 10:35:26;;;;;;;10.07;5.65;;;;;;;;;;5091349;28;20020;-65
2023/06/18 10:37:52;;;;;;;10.82;5.55;;;;;;;;;;5085631;28;20116;-65
2023/06/18 10:40:19;;;;;;;9.20;4.50;;;;;;;;;;5085171;28;20024;-63
2023/06/18 10:42:47;;;;;;;9.07;5.43;;;;;;;;;;5088503;28;20020;-65
2023/06/18 10:45:13;;;;;;;5.75;5.18;;;;;;;;;;5090855;28;20459;-65
2023/06/18 10:47:40;;;;;;;7.47;5.82;;;;;;;;;;5091203;28;20031;-65
2023/06/18 10:50:08;;;;;;;9.10;5.68;;;;;;;;;;5091603;28;20024;-65
2023/06/18 10:52:37;;;;;;;8.35;5.68;;;;;;;;;;5089993;28;20108;-66
2023/06/18 10:55:15;;;;;;;6.80;5.75;;;;;;;;;;5082901;28;20063;-65
2023/06/18 10:57:41;;;;;;;8.07;5.65;;;;;;;;;;5091130;28;20035;-70
2023/06/18 11:00:15;;;;;;;11.65;6.15;;;;;;;;;;5090925;28;20046;-67
2023/06/18 11:02:41;;;;;;;7.03;5.78;;;;;;;;;;5087953;28;20470;-65
2023/06/18 11:05:06;;;;;;;8.52;5.35;;;;;;;;;;5085284;28;20115;-66
2023/06/18 11:07:31;;;;;;;6.95;5.80;;;;;;;;;;5059097;28;20055;-66
2023/06/18 11:09:58;;;;;;;6.70;5.90;;;;;;;;;;5038102;28;20032;-65
2023/06/18 11:12:25;;;;;;;7.22;5.55;;;;;;;;;;5046866;28;20068;-67
2023/06/18 11:15:09;;;;;;;6.97;5.72;;;;;;;;;;5044109;28;20217;-66
2023/06/18 11:17:34;;;;;;;8.30;6.15;;;;;;;;;;5042302;28;20024;-65
2023/06/18 11:20:01;;;;;;;10.90;6.05;;;;;;;;;;5047334;28;20090;-66
2023/06/18 11:22:30;;;;;;;8.10;5.30;;;;;;;;;;5041456;28;20088;-65
2023/06/18 11:24:57;;;;;;;15.20;6.05;;;;;;;;;;5037017;28;20052;-65
2023/06/18 11:27:24;;;;;;;8.00;6.30;;;;;;;;;;5062590;28;20063;-64
2023/06/18 11:29:49;;;;;;;8.43;6.10;;;;;;;;;;5090686;28;20028;-64
2023/06/18 11:32:14;;;;;;;8.07;5.47;;;;;;;;;;5084983;28;20067;-65
2023/06/18 11:34:43;;;;;;;7.80;5.97;;;;;;;;;;5084325;28;20407;-64
2023/06/18 11:37:09;;;;;;;10.70;5.95;;;;;;;;;;5077836;28;20032;-65
2023/06/18 11:39:35;;;;;;;7.95;5.43;;;;;;;;;;5083487;28;20386;-65
2023/06/18 11:42:19;;;;;;;8.27;5.85;;;;;;;;;;5081353;28;20032;-65
2023/06/18 11:44:48;;;;;;;11.20;5.60;;;;;;;;;;5089835;28;20111;-65
2023/06/18 11:47:13;;;;;;;7.55;5.18;;;;;;;;;;5090569;28;20024;-64
2023/06/18 11:49:43;;;;;;;6.25;5.18;;;;;;;;;;5093214;28;20422;-64
2023/06/18 11:52:08;;;;;;;6.18;4.88;;;;;;;;;;5088784;28;20503;-64
2023/06/18 11:54:35;;;;;;;8.45;5.82;;;;;;;;;;5094149;28;20073;-63
2023/06/18 11:57:00;;;;;;;6.50;5.20;;;;;;;;;;5090777;28;20077;-64
2023/06/18 11:59:26;;;;;;;8.52;5.70;;;;;;;;;;5086217;28;20032;-65
2023/06/18 12:01:51;;;;;;;9.25;5.85;;;;;;;;;;5086877;28;20036;-65
2023/06/18 12:04:16;;;;;;;8.23;6.70;;;;;;;;;;5092953;28;20032;-64
2023/06/18 12:06:42;;;;;;;10.67;5.87;;;;;;;;;;5087248;28;20060;-64
2023/06/18 12:09:08;;;;;;;8.83;5.80;;;;;;;;;;5078382;28;20294;-63
2023/06/18 12:11:48;;;;;;;7.25;6.55;;;;;;;;;;5079252;28;20025;-65
2023/06/18 12:14:22;;;;;;;10.05;5.82;;;;;;;;;;5088700;28;20103;-63
2023/06/18 12:16:48;;;;;;;13.10;5.70;;;;;;;;;;5093601;28;20499;-64
2023/06/18 12:19:13;;;;;;;7.45;5.43;;;;;;;;;;5093152;28;20031;-65
2023/06/18 12:21:39;;;;;;;8.55;5.63;;;;;;;;;;5093289;28;20020;-64
2023/06/18 12:24:04;;;;;;;8.65;5.50;;;;;;;;;;5093235;28;20024;-66
2023/06/18 12:26:30;;;;;;;12.45;5.30;;;;;;;;;;5092872;28;20471;-66
2023/06/18 12:28:56;;;;;;;7.15;5.18;;;;;;;;;;5091769;28;20028;-65
2023/06/18 12:31:21;;;;;;;12.02;5.57;;;;;;;;;;5092636;28;20020;-65
2023/06/18 12:33:46;;;;;;;7.80;4.93;;;;;;;;;;5092882;28;20024;-64
2023/06/18 12:36:11;;;;;;;9.07;5.25;;;;;;;;;;5092591;28;20020;-65
2023/06/18 12:38:40;;;;;;;7.30;4.70;;;;;;;;;;5093681;28;20026;-64
2023/06/18 12:41:06;;;;;;;12.52;5.75;;;;;;;;;;5092824;28;20099;-65
2023/06/18 12:43:37;;;;;;;11.02;5.65;;;;;;;;;;5092582;28;20032;-65
2023/06/18 12:46:03;;;;;;;9.60;5.82;;;;;;;;;;5092368;28;20115;-65
2023/06/18 12:48:29;;;;;;;9.20;5.47;;;;;;;;;;5092852;28;20098;-64
2023/06/18 12:50:55;;;;;;;6.13;4.45;;;;;;;;;;5093009;28;20095;-65
2023/06/18 12:53:25;;;;;;;6.70;5.60;;;;;;;;;;5092728;28;20016;-64
2023/06/18 12:55:52;;;;;;;8.25;6.00;;;;;;;;;;5091268;28;20096;-65
2023/06/18 12:58:18;;;;;;;6.25;5.15;;;;;;;;;;5093003;28;20058;-64
2023/06/18 13:00:44;;;;;;;9.15;5.70;;;;;;;;;;5092984;28;20082;-65
2023/06/18 13:03:09;;;;;;;10.63;6.00;;;;;;;;;;5092261;28;20328;-64
2023/06/18 13:05:35;;;;;;;9.75;6.07;;;;;;;;;;5088877;28;20023;-64
2023/06/18 13:08:01;;;;;;;9.38;5.93;;;;;;;;;;5076174;28;20033;-66
2023/06/18 13:10:27;;;;;;;8.45;5.55;;;;;;;;;;5092337;28;20031;-66
2023/06/18 13:12:52;;;;;;;8.15;6.38;;;;;;;;;;5092484;28;20032;-64
2023/06/18 13:15:17;;;;;;;15.53;6.60;;;;;;;;;;5091630;28;20137;-64
2023/06/18 13:17:42;;;;;;;6.03;5.38;;;;;;;;;;5092028;28;20020;-65
2023/06/18 13:20:09;;;;;;;6.65;5.50;;;;;;;;;;5078198;28;20105;-66
2023/06/18 13:22:34;;;;;;;9.35;5.97;;;;;;;;;;5085926;28;20031;-65
2023/06/18 13:25:00;;;;;;;12.00;6.10;;;;;;;;;;5091872;28;20032;-65
2023/06/18 13:27:28;;;;;;;11.20;5.38;;;;;;;;;;5091823;28;20020;-65
2023/06/18 13:29:54;;;;;;;6.35;5.00;;;;;;;;;;5091644;28;20470;-65
2023/06/18 13:32:19;;;;;;;8.30;5.93;;;;;;;;;;5092122;28;20024;-65
2023/06/18 13:34:45;;;;;;;7.95;5.63;;;;;;;;;;5092032;28;20401;-65
2023/06/18 13:37:10;;;;;;;9.40;5.25;;;;;;;;;;5092066;28;20031;-65
2023/06/18 13:39:35;;;;;;;9.20;5.40;;;;;;;;;;5091198;28;20027;-65
2023/06/18 13:42:01;;;;;;;10.15;5.90;;;;;;;;;;5091909;28;20334;-66
2023/06/18 13:44:26;;;;;;;10.67;5.40;;;;;;;;;;5091445;28;20028;-65
2023/06/18 13:46:51;;;;;;;13.27;5.60;;;;;;;;;;5092474;28;20313;-65
2023/06/18 13:49:16;;;;;;;8.03;5.77;;;;;;;;;;5091754;28;20285;-65
2023/06/18 13:51:42;;;;;;;9.23;5.20;;;;;;;;;;5086762;28;20077;-65
2023/06/18 13:54:07;;;;;;;7.97;5.47;;;;;;;;;;5087800;28;20024;-64
2023/06/18 13:56:32;;;;;;;8.73;4.93;;;;;;;;;;5091667;28;20132;-63
2023/06/18 13:58:58;;;;;;;7.53;5.45;;;;;;;;;;5085386;28;20309;-65
2023/06/18 14:01:23;;;;;;;6.75;5.68;;;;;;;;;;5089474;28;20024;-66
2023/06/18 14:03:48;;;;;;;9.40;5.80;;;;;;;;;;5084198;28;20024;-65
2023/06/18 14:06:14;;;;;;;8.50;5.50;;;;;;;;;;5088910;28;20614;-65
2023/06/18 14:08:40;;;;;;;6.20;5.33;;;;;;;;;;5088386;28;20286;-65
2023/06/18 14:11:05;;;;;;;7.72;5.70;;;;;;;;;;5087782;28;20282;-65
2023/06/18 14:13:31;;;;;;;8.27;6.07;;;;;;;;;;5089602;28;20068;-65
2023/06/18 14:15:56;;;;;;;7.73;5.53;;;;;;;;;;5090977;28;20038;-65
2023/06/18 14:18:22;;;;;;;7.03;5.80;;;;;;;;;;5073353;28;20447;-66
2023/06/18 14:20:47;;;;;;;7.70;6.10;;;;;;;;;;5091600;28;20028;-66
2023/06/18 14:23:13;;;;;;;8.02;6.22;;;;;;;;;;5091480;28;20501;-65
2023/06/18 14:25:38;;;;;;;7.82;5.45;;;;;;;;;;5079380;28;20033;-66
2023/06/18 14:28:04;;;;;;;7.60;5.80;;;;;;;;;;5089158;28;20012;-65
2023/06/18 14:30:30;;;;;;;6.78;6.07;;;;;;;;;;5092049;28;20023;-66
2023/06/18 14:32:55;;;;;;;9.35;5.80;;;;;;;;;;5084426;28;20016;-65
2023/06/18 14:35:20;;;;;;;9.43;5.53;;;;;;;;;;5090908;28;20028;-65